Details From KCRE - Grand Strand
To KPVG - Hampton Roads Executive
Flight Number -
Tags Decoded
Created
Modified
Stats Distance 230 nm / 425 km
Max Altitude 0 ft / 0 m
Waypoints 7
Social Downloads 1
Likes 0
Share VATSIM

Download

Looking for another format? Having issues loading an existing format? Contact us
Advertisement - Login to hide

Notes

Decoded

Route

KCRE ILM EWN PEARS CVI SEZJY KPVG

ID Type Via Altitude Latitude Longitude Leg Dist Tot Dist Heading (true) Name
O KCRE APT - 0 ft / 0 m 33.80603˚ -78.73105˚ - 0 nm - -
ILM VOR - 0 ft / 0 m 34.35167˚ -77.87439˚ 53 nm 53 nm 52° / 53° WILMINGTON VORTAC
EWN VOR - 0 ft / 0 m 35.07314˚ -77.04506˚ 59 nm 113 nm 43° / 44° NEW BERN VOR-DME
PEARS FIX - 0 ft / 0 m 35.78678˚ -76.95056˚ 43 nm 156 nm 6° / 6° -
CVI VOR - 0 ft / 0 m 36.37292˚ -76.87153˚ 35 nm 191 nm 6° / 6° COFIELD VORTAC
SEZJY FIX - 0 ft / 0 m 36.78692˚ -76.68125˚ 26 nm 218 nm 20° / 20° -
O KPVG APT - 0 ft / 0 m 36.77770˚ -76.44931˚ 11 nm 229 nm 93° / 93° HAMPTON ROADS EXECUTIVE

Altitude Profile

Advertisement - Login to hide

Weather


0- 5 10 15 20 25 30 35+ Temperature / ° C

Clouds and Precipitation
Forecast for 2017-12-16 00:00 UTC. Updated 36 minutes ago

Ground ~20,000 ft ~40,000 ft Winds

KCRE

Details ICAO KCRE
Name Grand Strand
Region United States
Timezone America/New_York (UTC-5.0)
Stats Elevation 32 ft / 10 m (AMSL)
Location 33.811749° -78.723941°
Runways 1
Magnetic Variation 8.862° W

METAR

KCRE 152053Z 25008G15KT 10SM CLR 15/04 A2993 RMK AO1 SLP137 T01500039 53002

Decode

TAF

TAF KCRE 151720Z 1518/1618 24009KT P6SM BKN140 BKN200 FM160200 31005KT P6SM BKN140 BKN200 FM160600 36003KT P6SM SCT180 BKN250 FM161500 04005KT P6SM BKN250

Decode

Departure Runways

ID Width Length Bearing (true) Bearing (mag) Surface Threshold Offset Overrun Length
05 98 ft / 30 m 5,998 ft / 1,828 m 45.94° 54.80° Asphalt 0 ft / 0 m 0 ft / 0 m
23 98 ft / 30 m 5,998 ft / 1,828 m 225.94° 234.80° Asphalt 0 ft / 0 m 0 ft / 0 m

KPVG

Details ICAO KPVG
Name HAMPTON ROADS EXECUTIVE
Region United States
Timezone America/New_York (UTC-5.0)
Stats Elevation 23 ft / 7 m (AMSL)
Location 36.780253° -76.448946°
Runways 2
Magnetic Variation 10.745° W

METAR

KPVG 152056Z 29008G16KT 250V340 10SM CLR 06/01 A2990 RMK AO2 SLP125 T00610006 53007

Decode

TAF

Not found

Destination Runways

ID Width Length Bearing (true) Bearing (mag) Surface Threshold Offset Overrun Length
02 69 ft / 21 m 2,580 ft / 786 m 8.67° 19.42° Asphalt 177 ft / 54 m 509 ft / 155 m
10 69 ft / 21 m 3,912 ft / 1,192 m 92.41° 103.16° Asphalt 0 ft / 0 m 0 ft / 0 m
20 69 ft / 21 m 2,580 ft / 786 m 188.67° 199.42° Asphalt 177 ft / 54 m 446 ft / 136 m
28 69 ft / 21 m 3,912 ft / 1,192 m 272.42° 283.17° Asphalt 59 ft / 18 m 135 ft / 41 m